Time;durP1;ratioP1;P1;durP2;ratioP2;P2;SDS_P1;SDS_P2;PMS_P1;PMS_P2;Temp;Humidity;BMP_temperature;BMP_pressure;BME280_temperature;BME280_humidity;BME280_pressure;Samples;Min_cycle;Max_cycle;Signal;HPM_P1;HPM_P2
2023/10/05 00:04:43;;;;;;;13.00;5.03;;;;;;;-148.88;100.00;-17125.47;5034310;28;20099;-73
2023/10/05 00:07:30;;;;;;;19.13;5.22;;;;;;;-148.88;100.00;-17125.47;5032235;28;20478;-73
2023/10/05 00:09:57;;;;;;;12.82;5.40;;;;;;;-148.88;100.00;-17125.47;5033457;28;20033;-74
2023/10/05 00:12:22;;;;;;;13.23;5.45;;;;;;;-148.88;100.00;-17125.47;5033469;28;20078;-73
2023/10/05 00:14:55;;;;;;;13.07;5.72;;;;;;;-148.88;100.00;-17125.47;5033176;28;20025;-74
2023/10/05 00:17:21;;;;;;;12.68;5.72;;;;;;;-148.88;100.00;-17125.47;5033340;28;20101;-73
2023/10/05 00:19:47;;;;;;;13.80;5.85;;;;;;;-148.88;100.00;-17125.47;5031921;28;20044;-74
2023/10/05 00:22:12;;;;;;;12.43;6.07;;;;;;;-148.88;100.00;-17125.47;5031946;28;20025;-74
2023/10/05 00:24:39;;;;;;;12.25;5.82;;;;;;;-148.88;100.00;-17125.47;5033114;28;20045;-74
2023/10/05 00:27:09;;;;;;;13.27;6.20;;;;;;;-148.88;100.00;-17125.47;5031814;28;20491;-74
2023/10/05 00:29:41;;;;;;;16.48;6.00;;;;;;;-148.88;100.00;-17125.47;5032949;28;20064;-74
2023/10/05 00:32:21;;;;;;;14.27;6.35;;;;;;;-148.88;100.00;-17125.47;5031656;28;20029;-74
2023/10/05 00:34:52;;;;;;;13.23;6.28;;;;;;;-148.88;100.00;-17125.47;5033077;28;20042;-74
2023/10/05 00:37:17;;;;;;;14.45;6.43;;;;;;;-148.88;100.00;-17125.47;5032926;28;20029;-74
2023/10/05 00:39:47;;;;;;;15.88;6.50;;;;;;;-148.88;100.00;-17125.47;5032743;28;20021;-73
2023/10/05 00:42:14;;;;;;;12.65;6.18;;;;;;;-148.88;100.00;-17125.47;5032782;28;20021;-73
2023/10/05 00:44:41;;;;;;;18.17;6.80;;;;;;;-148.88;100.00;-17125.47;5032693;28;20496;-73
2023/10/05 00:47:07;;;;;;;17.55;7.57;;;;;;;-148.88;100.00;-17125.47;5032701;28;20033;-74
2023/10/05 00:49:45;;;;;;;15.20;7.22;;;;;;;-148.88;100.00;-17125.47;5032702;28;20201;-73
2023/10/05 00:52:15;;;;;;;15.20;6.82;;;;;;;-148.88;100.00;-17125.47;5031342;28;20100;-73
2023/10/05 00:54:54;;;;;;;13.13;7.03;;;;;;;-148.88;100.00;-17125.47;5032871;28;20079;-73
2023/10/05 00:57:23;;;;;;;18.25;7.40;;;;;;;-148.88;100.00;-17125.47;5030952;28;20516;-74
2023/10/05 01:02:25;;;;;;;14.35;6.68;;;;;;;-148.88;100.00;-17125.47;5032911;28;20029;-73
2023/10/05 01:05:00;;;;;;;15.90;6.65;;;;;;;-148.88;100.00;-17125.47;5031253;28;20108;-73
2023/10/05 01:07:42;;;;;;;14.23;6.38;;;;;;;-148.88;100.00;-17125.47;5032398;28;20409;-74
2023/10/05 01:12:50;;;;;;;16.73;6.25;;;;;;;-148.88;100.00;-17125.47;5032838;28;20026;-73
2023/10/05 01:15:21;;;;;;;14.35;6.13;;;;;;;-148.88;100.00;-17125.47;5032309;28;20056;-74
2023/10/05 01:17:51;;;;;;;19.02;6.65;;;;;;;-148.88;100.00;-17125.47;5032166;28;20033;-73
2023/10/05 01:22:45;;;;;;;12.73;5.60;;;;;;;-148.88;100.00;-17125.47;5032583;28;20029;-73
2023/10/05 01:25:14;;;;;;;14.05;6.25;;;;;;;-148.88;100.00;-17125.47;5032429;28;20021;-74
2023/10/05 01:27:43;;;;;;;11.23;5.88;;;;;;;-148.88;100.00;-17125.47;5030873;28;20021;-74
2023/10/05 01:30:12;;;;;;;13.02;5.38;;;;;;;-148.88;100.00;-17125.47;5030829;28;20021;-73
2023/10/05 01:32:38;;;;;;;11.80;5.43;;;;;;;-148.88;100.00;-17125.47;5030954;28;20504;-73
2023/10/05 01:35:08;;;;;;;13.15;5.50;;;;;;;-148.88;100.00;-17125.47;5032189;28;20017;-74
2023/10/05 01:37:36;;;;;;;11.02;5.28;;;;;;;-148.88;100.00;-17125.47;5032209;28;20053;-73
2023/10/05 01:40:11;;;;;;;13.15;5.80;;;;;;;-148.88;100.00;-17125.47;5031969;28;20053;-74
2023/10/05 01:42:40;;;;;;;11.88;5.18;;;;;;;-148.88;100.00;-17125.47;5032448;28;20109;-74
2023/10/05 01:45:07;;;;;;;13.27;5.60;;;;;;;-148.88;100.00;-17125.47;5031990;28;20025;-73
2023/10/05 01:47:32;;;;;;;13.15;5.53;;;;;;;-148.88;100.00;-17125.47;5031848;28;20029;-73
2023/10/05 01:49:58;;;;;;;14.55;5.13;;;;;;;-148.88;100.00;-17125.47;5032043;28;20100;-73
2023/10/05 01:52:23;;;;;;;18.23;5.50;;;;;;;-148.88;100.00;-17125.47;5031858;28;20482;-73
2023/10/05 01:54:48;;;;;;;12.23;5.40;;;;;;;-148.88;100.00;-17125.47;5031915;28;20085;-73
2023/10/05 01:57:16;;;;;;;12.85;5.75;;;;;;;-148.88;100.00;-17125.47;5031945;28;20072;-73
2023/10/05 01:59:42;;;;;;;11.32;4.93;;;;;;;-148.88;100.00;-17125.47;5031888;28;20025;-73
2023/10/05 02:02:10;;;;;;;13.27;5.25;;;;;;;-148.88;100.00;-17125.47;5031944;28;20029;-74
2023/10/05 02:04:42;;;;;;;15.73;5.35;;;;;;;-148.88;100.00;-17125.47;5031980;28;20477;-73
2023/10/05 02:07:09;;;;;;;17.30;5.72;;;;;;;-148.88;100.00;-17125.47;5030491;28;20386;-74
2023/10/05 02:09:37;;;;;;;10.73;4.65;;;;;;;-148.88;100.00;-17125.47;5032904;28;20021;-74
2023/10/05 02:12:06;;;;;;;12.82;4.70;;;;;;;-148.88;100.00;-17125.47;5035941;28;20026;-73
2023/10/05 02:14:31;;;;;;;11.20;4.57;;;;;;;-148.88;100.00;-17125.47;5035839;28;20397;-74
2023/10/05 02:16:57;;;;;;;15.10;4.80;;;;;;;-148.88;100.00;-17125.47;5035602;28;20547;-74
2023/10/05 02:19:22;;;;;;;12.18;5.03;;;;;;;-148.88;100.00;-17125.47;5034098;28;20022;-73
2023/10/05 02:21:52;;;;;;;10.18;4.80;;;;;;;-148.88;100.00;-17125.47;5034180;28;20035;-74
2023/10/05 02:24:22;;;;;;;10.27;4.10;;;;;;;-148.88;100.00;-17125.47;5035765;28;20490;-73
2023/10/05 02:29:29;;;;;;;12.88;4.75;;;;;;;-148.88;100.00;-17125.47;5035654;28;20030;-73
2023/10/05 02:34:24;;;;;;;12.57;4.88;;;;;;;-148.88;100.00;-17125.47;5035428;28;20143;-75
2023/10/05 02:36:50;;;;;;;11.80;5.03;;;;;;;-148.88;100.00;-17125.47;5033765;28;20030;-73
2023/10/05 02:39:16;;;;;;;11.77;4.90;;;;;;;-148.88;100.00;-17125.47;5035023;28;20116;-73
2023/10/05 02:41:43;;;;;;;12.55;4.65;;;;;;;-148.88;100.00;-17125.47;5035167;28;20025;-73
2023/10/05 02:44:23;;;;;;;14.60;5.00;;;;;;;-148.88;100.00;-17125.47;5034118;28;20052;-74
2023/10/05 02:46:48;;;;;;;12.70;4.80;;;;;;;-148.88;100.00;-17125.47;5035237;28;20029;-73
2023/10/05 02:49:18;;;;;;;13.98;4.90;;;;;;;-148.88;100.00;-17125.47;5034979;28;20025;-73
2023/10/05 02:51:44;;;;;;;13.48;5.68;;;;;;;-148.88;100.00;-17125.47;5034772;28;20056;-74
2023/10/05 02:54:10;;;;;;;13.10;5.43;;;;;;;-148.88;100.00;-17125.47;5034831;28;20478;-74
2023/10/05 02:56:39;;;;;;;10.80;4.95;;;;;;;-148.88;100.00;-17125.47;5034750;28;20073;-74
2023/10/05 02:59:07;;;;;;;12.35;5.28;;;;;;;-148.88;100.00;-17125.47;5034699;28;20062;-73
2023/10/05 03:01:39;;;;;;;14.68;4.82;;;;;;;-148.88;100.00;-17125.47;5034708;28;20044;-74
2023/10/05 03:04:37;;;;;;;12.07;5.18;;;;;;;-148.88;100.00;-17125.47;5034910;28;20025;-73
2023/10/05 03:06:54;;;;;;;10.45;5.05;;;;;;;-148.88;100.00;-17125.47;5034256;28;20108;-73
2023/10/05 03:09:21;;;;;;;11.60;4.50;;;;;;;-148.88;100.00;-17125.47;5034482;28;20172;-73
2023/10/05 03:11:48;;;;;;;12.80;4.75;;;;;;;-148.88;100.00;-17125.47;5034446;28;20032;-73
2023/10/05 03:14:16;;;;;;;13.85;4.85;;;;;;;-148.88;100.00;-17125.47;5034400;28;20044;-74
2023/10/05 03:16:48;;;;;;;11.75;4.80;;;;;;;-148.88;100.00;-17125.47;5034396;28;20028;-74
2023/10/05 03:19:21;;;;;;;11.88;5.00;;;;;;;-148.88;100.00;-17125.47;5033041;28;20028;-74
2023/10/05 03:21:49;;;;;;;14.80;4.55;;;;;;;-148.88;100.00;-17125.47;5034281;28;20083;-73
2023/10/05 03:24:14;;;;;;;8.90;4.25;;;;;;;-148.88;100.00;-17125.47;5034384;28;20021;-74
2023/10/05 03:26:40;;;;;;;9.75;4.50;;;;;;;-148.88;100.00;-17125.47;5032949;28;20401;-73
2023/10/05 03:29:07;;;;;;;10.95;4.75;;;;;;;-148.88;100.00;-17125.47;5034189;28;20036;-74
2023/10/05 03:31:37;;;;;;;11.63;5.15;;;;;;;-148.88;100.00;-17125.47;5033597;28;20104;-73
2023/10/05 03:34:07;;;;;;;10.63;5.03;;;;;;;-148.88;100.00;-17125.47;5034170;28;20044;-74
2023/10/05 03:36:33;;;;;;;11.55;5.18;;;;;;;-148.88;100.00;-17125.47;5032703;28;20030;-74
2023/10/05 03:39:03;;;;;;;14.38;4.80;;;;;;;-148.88;100.00;-17125.47;5034238;28;20025;-73
2023/10/05 03:41:28;;;;;;;11.80;5.07;;;;;;;-148.88;100.00;-17125.47;5034016;28;20062;-74
2023/10/05 03:44:01;;;;;;;10.40;4.88;;;;;;;-148.88;100.00;-17125.47;5034025;28;20500;-73
2023/10/05 03:46:26;;;;;;;12.65;5.60;;;;;;;-148.88;100.00;-17125.47;5034300;28;20027;-74
2023/10/05 03:48:59;;;;;;;11.38;5.50;;;;;;;-148.88;100.00;-17125.47;5033809;28;20104;-74
2023/10/05 03:51:25;;;;;;;9.07;4.93;;;;;;;-148.88;100.00;-17125.47;5033792;28;20493;-73
2023/10/05 03:53:51;;;;;;;15.27;5.03;;;;;;;-148.88;100.00;-17125.47;5032523;28;20041;-73
2023/10/05 03:56:19;;;;;;;12.13;5.43;;;;;;;-148.88;100.00;-17125.47;5032470;28;20041;-73
2023/10/05 03:58:48;;;;;;;12.07;5.38;;;;;;;-148.88;100.00;-17125.47;5033607;28;20045;-73
2023/10/05 04:01:15;;;;;;;9.13;4.80;;;;;;;-148.88;100.00;-17125.47;5033839;28;20026;-74
2023/10/05 04:03:42;;;;;;;14.18;5.15;;;;;;;-148.88;100.00;-17125.47;5033683;28;20029;-74
2023/10/05 04:06:26;;;;;;;11.05;4.90;;;;;;;-148.88;100.00;-17125.47;5032543;28;20485;-73
2023/10/05 04:08:59;;;;;;;11.02;3.80;;;;;;;-148.88;100.00;-17125.47;5033468;28;20025;-73
2023/10/05 04:11:26;;;;;;;11.63;4.57;;;;;;;-148.88;100.00;-17125.47;5032140;28;20021;-74
2023/10/05 04:13:57;;;;;;;10.00;4.10;;;;;;;-148.88;100.00;-17125.47;5033312;28;20034;-74
2023/10/05 04:16:33;;;;;;;10.07;3.95;;;;;;;-148.88;100.00;-17125.47;5033274;28;20021;-73
2023/10/05 04:19:00;;;;;;;11.80;3.72;;;;;;;-148.88;100.00;-17125.47;5033235;28;20033;-73
2023/10/05 04:21:26;;;;;;;11.45;4.03;;;;;;;-148.88;100.00;-17125.47;5033257;28;20083;-74
2023/10/05 04:23:56;;;;;;;10.23;4.03;;;;;;;-148.88;100.00;-17125.47;5033139;28;20029;-74
2023/10/05 04:26:22;;;;;;;9.60;3.60;;;;;;;-148.88;100.00;-17125.47;5033269;28;20402;-73
2023/10/05 04:28:52;;;;;;;7.55;3.70;;;;;;;-148.88;100.00;-17125.47;5033081;28;20466;-73
2023/10/05 04:31:27;;;;;;;9.32;3.35;;;;;;;-148.88;100.00;-17125.47;5031718;28;20033;-73
2023/10/05 04:33:56;;;;;;;10.25;3.28;;;;;;;-148.88;100.00;-17125.47;5032870;28;20068;-73
2023/10/05 04:36:23;;;;;;;6.60;3.03;;;;;;;-148.88;100.00;-17125.47;5033190;28;20053;-74
2023/10/05 04:38:53;;;;;;;7.57;3.42;;;;;;;-148.88;100.00;-17125.47;5031590;28;20112;-73
2023/10/05 04:41:19;;;;;;;11.80;3.47;;;;;;;-148.88;100.00;-17125.47;5032903;28;20482;-74
2023/10/05 04:43:47;;;;;;;8.20;4.03;;;;;;;-148.88;100.00;-17125.47;5031952;28;20029;-73
2023/10/05 04:46:17;;;;;;;10.20;3.70;;;;;;;-148.88;100.00;-17125.47;5032034;28;20021;-73
2023/10/05 04:48:55;;;;;;;9.98;3.97;;;;;;;-148.88;100.00;-17125.47;5032909;28;20494;-73
2023/10/05 04:51:21;;;;;;;11.15;4.43;;;;;;;-148.88;100.00;-17125.47;5032574;28;20115;-74
2023/10/05 04:53:48;;;;;;;10.45;4.32;;;;;;;-148.88;100.00;-17125.47;5031343;28;20040;-73
2023/10/05 04:56:27;;;;;;;9.93;4.90;;;;;;;-148.88;100.00;-17125.47;5032415;28;20501;-73
2023/10/05 04:58:53;;;;;;;9.35;4.70;;;;;;;-148.88;100.00;-17125.47;5032529;28;20028;-73
2023/10/05 05:01:46;;;;;;;12.23;4.90;;;;;;;-148.88;100.00;-17125.47;5032594;28;20021;-73
2023/10/05 05:06:59;;;;;;;11.52;4.90;;;;;;;-148.88;100.00;-17125.47;5032979;28;20130;-74
2023/10/05 05:09:35;;;;;;;11.48;5.53;;;;;;;-148.88;100.00;-17125.47;5032454;28;20021;-74
2023/10/05 05:12:04;;;;;;;9.63;5.70;;;;;;;-148.88;100.00;-17125.47;5032440;28;20398;-74
2023/10/05 05:14:33;;;;;;;10.45;6.28;;;;;;;-148.88;100.00;-17125.47;5032503;28;20029;-74
2023/10/05 05:17:05;;;;;;;10.45;6.43;;;;;;;-148.88;100.00;-17125.47;5031049;28;20401;-73
2023/10/05 05:19:31;;;;;;;13.35;7.50;;;;;;;-148.88;100.00;-17125.47;5032553;28;20446;-74
2023/10/05 05:21:59;;;;;;;15.80;8.00;;;;;;;-148.88;100.00;-17125.47;5032326;28;20497;-74
2023/10/05 05:24:28;;;;;;;19.20;9.65;;;;;;;-148.88;100.00;-17125.47;5032518;28;20535;-74
2023/10/05 05:26:54;;;;;;;14.75;9.57;;;;;;;-148.88;100.00;-17125.47;5030915;28;20114;-73
2023/10/05 05:29:19;;;;;;;17.83;10.82;;;;;;;-148.88;100.00;-17125.47;5032126;28;20028;-73
2023/10/05 05:31:44;;;;;;;15.27;11.52;;;;;;;-148.88;100.00;-17125.47;5030814;28;20033;-73
2023/10/05 05:34:10;;;;;;;19.73;12.13;;;;;;;-148.88;100.00;-17125.47;5032034;28;20473;-73
2023/10/05 05:36:36;;;;;;;17.45;11.68;;;;;;;-148.88;100.00;-17125.47;5030836;28;20025;-73
2023/10/05 05:39:04;;;;;;;23.13;13.57;;;;;;;-148.88;100.00;-17125.47;5031963;28;20029;-73
2023/10/05 05:41:29;;;;;;;20.35;13.25;;;;;;;-148.88;100.00;-17125.47;5032068;28;20025;-73
2023/10/05 05:43:56;;;;;;;20.50;14.60;;;;;;;-148.88;100.00;-17125.47;5033530;28;20021;-73
2023/10/05 05:46:22;;;;;;;23.10;14.57;;;;;;;-148.88;100.00;-17125.47;5036093;28;20104;-73
2023/10/05 05:48:52;;;;;;;22.70;14.43;;;;;;;-148.88;100.00;-17125.47;5036024;28;20026;-73
2023/10/05 05:51:22;;;;;;;19.80;14.38;;;;;;;-148.88;100.00;-17125.47;5035911;28;20030;-74
2023/10/05 05:53:48;;;;;;;22.85;14.60;;;;;;;-148.88;100.00;-17125.47;5036068;28;20028;-73
2023/10/05 05:56:16;;;;;;;22.25;13.50;;;;;;;-148.88;100.00;-17125.47;5034517;28;20022;-74
2023/10/05 05:58:51;;;;;;;20.92;13.00;;;;;;;-148.88;100.00;-17125.47;5035768;28;20062;-73
2023/10/05 06:01:16;;;;;;;18.70;12.07;;;;;;;-148.88;100.00;-17125.47;5036143;28;20026;-73
2023/10/05 06:03:49;;;;;;;17.50;11.50;;;;;;;-148.88;100.00;-17125.47;5035935;28;20500;-74
2023/10/05 06:06:16;;;;;;;17.92;11.75;;;;;;;-148.88;100.00;-17125.47;5035851;28;20474;-73
2023/10/05 06:08:42;;;;;;;21.35;12.50;;;;;;;-148.88;100.00;-17125.47;5035892;28;20078;-73
2023/10/05 06:11:08;;;;;;;19.98;11.77;;;;;;;-148.88;100.00;-17125.47;5035707;28;20021;-74
2023/10/05 06:13:37;;;;;;;17.95;11.52;;;;;;;-148.88;100.00;-17125.47;5035694;28;20108;-73
2023/10/05 06:16:09;;;;;;;19.73;12.45;;;;;;;-148.88;100.00;-17125.47;5035501;28;20025;-74
2023/10/05 06:18:38;;;;;;;17.57;11.50;;;;;;;-148.88;100.00;-17125.47;5035524;28;20025;-73
2023/10/05 06:21:07;;;;;;;17.48;12.07;;;;;;;-148.88;100.00;-17125.47;5035448;28;20390;-74
2023/10/05 06:23:35;;;;;;;19.05;11.63;;;;;;;-148.88;100.00;-17125.47;5035418;28;20485;-74
2023/10/05 06:26:01;;;;;;;19.55;11.98;;;;;;;-148.88;100.00;-17125.47;5035885;28;20104;-74
2023/10/05 06:28:27;;;;;;;18.33;11.70;;;;;;;-148.88;100.00;-17125.47;5035388;28;20137;-73
2023/10/05 06:30:53;;;;;;;15.15;10.88;;;;;;;-148.88;100.00;-17125.47;5035341;28;20017;-74
2023/10/05 06:33:19;;;;;;;20.35;11.20;;;;;;;-148.88;100.00;-17125.47;5035214;28;20366;-73
2023/10/05 06:35:45;;;;;;;15.10;10.98;;;;;;;-148.88;100.00;-17125.47;5035341;28;20025;-73
2023/10/05 06:38:11;;;;;;;15.07;10.68;;;;;;;-148.88;100.00;-17125.47;5033766;28;20117;-74
2023/10/05 06:40:36;;;;;;;17.83;10.60;;;;;;;-148.88;100.00;-17125.47;5035021;28;20025;-74
2023/10/05 06:43:05;;;;;;;20.13;10.93;;;;;;;-148.88;100.00;-17125.47;5035128;28;20493;-73
2023/10/05 06:45:31;;;;;;;16.65;11.50;;;;;;;-148.88;100.00;-17125.47;5033684;28;20045;-74
2023/10/05 06:47:56;;;;;;;18.23;10.50;;;;;;;-148.88;100.00;-17125.47;5034933;28;20440;-73
2023/10/05 06:50:22;;;;;;;15.77;10.73;;;;;;;-148.88;100.00;-17125.47;5034659;28;20402;-74
2023/10/05 06:52:48;;;;;;;20.25;11.80;;;;;;;-148.88;100.00;-17125.47;5033516;28;20028;-74
2023/10/05 06:55:17;;;;;;;18.35;11.93;;;;;;;-148.88;100.00;-17125.47;5034216;28;20025;-74
2023/10/05 06:57:44;;;;;;;16.50;10.82;;;;;;;-148.88;100.00;-17125.47;5034826;28;20100;-74
2023/10/05 07:00:12;;;;;;;17.92;11.90;;;;;;;-148.88;100.00;-17125.47;5034751;28;20362;-74
2023/10/05 07:02:39;;;;;;;16.70;11.13;;;;;;;-148.88;100.00;-17125.47;5033500;28;20456;-74
2023/10/05 07:05:05;;;;;;;19.63;11.40;;;;;;;-148.88;100.00;-17125.47;5034672;28;20028;-74
2023/10/05 07:07:37;;;;;;;17.33;11.13;;;;;;;-148.88;100.00;-17125.47;5033370;28;20500;-74
2023/10/05 07:10:04;;;;;;;15.68;10.45;;;;;;;-148.88;100.00;-17125.47;5034684;28;20056;-73
2023/10/05 07:12:31;;;;;;;17.90;10.55;;;;;;;-148.88;100.00;-17125.47;5033277;28;20500;-74
2023/10/05 07:14:57;;;;;;;16.00;9.63;;;;;;;-148.88;100.00;-17125.47;5034458;28;20037;-73
2023/10/05 07:17:25;;;;;;;15.45;10.15;;;;;;;-148.88;100.00;-17125.47;5034452;28;20032;-73
2023/10/05 07:19:51;;;;;;;14.52;9.88;;;;;;;-148.88;100.00;-17125.47;5034383;28;20030;-73
2023/10/05 07:22:17;;;;;;;20.38;9.68;;;;;;;-148.88;100.00;-17125.47;5034465;28;20402;-74
2023/10/05 07:24:43;;;;;;;17.38;8.95;;;;;;;-148.88;100.00;-17125.47;5034285;28;20390;-74
2023/10/05 07:27:08;;;;;;;16.98;8.75;;;;;;;-148.88;100.00;-17125.47;5032850;28;20029;-73
2023/10/05 07:29:34;;;;;;;17.05;9.13;;;;;;;-148.88;100.00;-17125.47;5034149;28;20029;-73
2023/10/05 07:32:01;;;;;;;15.82;8.80;;;;;;;-148.88;100.00;-17125.47;5034137;28;20017;-75
2023/10/05 07:34:26;;;;;;;14.27;8.30;;;;;;;-148.88;100.00;-17125.47;5034210;28;20025;-74
2023/10/05 07:36:52;;;;;;;16.95;9.45;;;;;;;-148.88;100.00;-17125.47;5034342;28;20104;-74
2023/10/05 07:39:18;;;;;;;15.18;9.13;;;;;;;-148.88;100.00;-17125.47;5034128;28;20490;-74
2023/10/05 07:41:46;;;;;;;17.45;8.57;;;;;;;-148.88;100.00;-17125.47;5034185;28;20025;-74
2023/10/05 07:44:11;;;;;;;15.60;9.50;;;;;;;-148.88;100.00;-17125.47;5034246;28;20041;-74
2023/10/05 07:46:38;;;;;;;15.77;9.60;;;;;;;-148.88;100.00;-17125.47;5033983;28;20029;-74
2023/10/05 07:49:04;;;;;;;14.10;9.32;;;;;;;-148.88;100.00;-17125.47;5033733;28;20029;-73
2023/10/05 07:51:30;;;;;;;14.93;9.00;;;;;;;-148.88;100.00;-17125.47;5033690;28;20029;-73
2023/10/05 07:53:56;;;;;;;12.75;8.73;;;;;;;-148.88;100.00;-17125.47;5033778;28;20029;-74
2023/10/05 07:56:21;;;;;;;13.52;8.48;;;;;;;-148.88;100.00;-17125.47;5033597;28;20394;-74
2023/10/05 07:58:46;;;;;;;15.63;7.63;;;;;;;-148.88;100.00;-17125.47;5033599;28;20021;-73
2023/10/05 08:01:12;;;;;;;17.17;8.93;;;;;;;-148.88;100.00;-17125.47;5032372;28;20025;-74
2023/10/05 08:03:39;;;;;;;15.48;8.07;;;;;;;-148.88;100.00;-17125.47;5032234;28;20029;-74
2023/10/05 08:06:09;;;;;;;17.42;7.75;;;;;;;-148.88;100.00;-17125.47;5032115;28;20461;-74
2023/10/05 08:08:35;;;;;;;9.38;6.90;;;;;;;-148.88;100.00;-17125.47;5032570;28;20018;-73
2023/10/05 08:11:00;;;;;;;15.77;7.55;;;;;;;-148.88;100.00;-17125.47;5033470;28;20028;-73
2023/10/05 08:13:25;;;;;;;13.90;6.90;;;;;;;-148.88;100.00;-17125.47;5033465;28;20021;-73
2023/10/05 08:15:51;;;;;;;16.27;6.35;;;;;;;-148.88;100.00;-17125.47;5033281;28;20482;-75
2023/10/05 08:18:16;;;;;;;12.10;6.63;;;;;;;-148.88;100.00;-17125.47;5033197;28;20052;-73
2023/10/05 08:20:42;;;;;;;12.00;6.30;;;;;;;-148.88;100.00;-17125.47;5031972;28;20401;-74
2023/10/05 08:23:08;;;;;;;13.75;6.63;;;;;;;-148.88;100.00;-17125.47;5031869;28;20442;-74
2023/10/05 08:25:33;;;;;;;16.20;6.45;;;;;;;-148.88;100.00;-17125.47;5033215;28;20104;-74
2023/10/05 08:28:00;;;;;;;11.32;6.22;;;;;;;-148.88;100.00;-17125.47;5033245;28;20056;-74
2023/10/05 08:30:26;;;;;;;12.35;5.88;;;;;;;-148.88;100.00;-17125.47;5033125;28;20032;-74
2023/10/05 08:32:51;;;;;;;12.00;5.97;;;;;;;-148.88;100.00;-17125.47;5033107;28;20047;-73
2023/10/05 08:35:19;;;;;;;9.82;5.35;;;;;;;-148.88;100.00;-17125.47;5032934;28;20029;-73
2023/10/05 08:37:53;;;;;;;11.63;5.90;;;;;;;-148.88;100.00;-17125.47;5032875;28;20076;-74
2023/10/05 08:43:16;;;;;;;15.57;5.40;;;;;;;-148.88;100.00;-17125.47;5023835;28;20033;-74
2023/10/05 08:45:46;;;;;;;11.00;5.50;;;;;;;-148.88;100.00;-17125.47;5031567;28;20025;-74
2023/10/05 08:48:18;;;;;;;14.38;5.15;;;;;;;-148.88;100.00;-17125.47;5033079;28;20021;-73
2023/10/05 08:50:49;;;;;;;10.38;5.07;;;;;;;-148.88;100.00;-17125.47;5091946;23;20025;-82
2023/10/05 08:53:19;;;;;;;15.20;5.10;;;;;;;-148.88;100.00;-17125.47;5033433;28;20033;-82
2023/10/05 08:55:52;;;;;;;11.75;4.68;;;;;;;-148.88;100.00;-17125.47;5033355;28;20090;-82
2023/10/05 08:58:28;;;;;;;12.00;4.72;;;;;;;-148.88;100.00;-17125.47;5033414;28;20512;-81
2023/10/05 09:01:03;;;;;;;12.75;5.15;;;;;;;-148.88;100.00;-17125.47;5032554;28;20498;-82
2023/10/05 09:03:29;;;;;;;11.93;5.07;;;;;;;-148.88;100.00;-17125.47;5033325;28;20045;-80
2023/10/05 09:06:13;;;;;;;12.07;4.80;;;;;;;-148.88;100.00;-17125.47;5046112;23;20046;-77
2023/10/05 09:11:31;;;;;;;15.00;4.60;;;;;;;-148.88;100.00;-17125.47;5033358;28;20382;-77
2023/10/05 09:14:13;;;;;;;10.23;4.50;;;;;;;-148.88;100.00;-17125.47;5032773;28;20036;-77
2023/10/05 09:16:43;;;;;;;15.35;4.50;;;;;;;-148.88;100.00;-17125.47;5033032;28;20494;-77
2023/10/05 09:19:15;;;;;;;12.35;4.72;;;;;;;-148.88;100.00;-17125.47;5032574;28;20025;-77
2023/10/05 09:21:44;;;;;;;12.38;4.80;;;;;;;-148.88;100.00;-17125.47;5032754;28;20021;-76
2023/10/05 09:24:20;;;;;;;14.15;4.68;;;;;;;-148.88;100.00;-17125.47;5032470;28;20396;-76
2023/10/05 09:27:15;;;;;;;14.88;4.78;;;;;;;-148.88;100.00;-17125.47;5032399;28;20029;-76
2023/10/05 09:29:42;;;;;;;12.13;4.28;;;;;;;-148.88;100.00;-17125.47;5030684;28;20034;-76
2023/10/05 09:32:30;;;;;;;8.85;4.22;;;;;;;-148.88;100.00;-17125.47;5032296;28;20030;-77
2023/10/05 09:34:57;;;;;;;10.00;4.13;;;;;;;-148.88;100.00;-17125.47;5031017;28;20516;-77
2023/10/05 09:37:26;;;;;;;12.35;4.50;;;;;;;-148.88;100.00;-17125.47;5031035;28;20025;-77
2023/10/05 09:39:58;;;;;;;9.93;4.22;;;;;;;-148.88;100.00;-17125.47;5032419;28;20025;-77
2023/10/05 09:42:27;;;;;;;10.88;4.68;;;;;;;-148.88;100.00;-17125.47;5031074;28;20079;-77
2023/10/05 09:45:06;;;;;;;13.25;4.50;;;;;;;-148.88;100.00;-17125.47;5032648;28;20029;-77
2023/10/05 09:47:34;;;;;;;9.55;4.18;;;;;;;-148.88;100.00;-17125.47;5032668;28;20045;-77
2023/10/05 09:50:02;;;;;;;12.27;4.25;;;;;;;-148.88;100.00;-17125.47;5030745;28;20029;-77
2023/10/05 09:52:37;;;;;;;12.90;4.38;;;;;;;-148.88;100.00;-17125.47;5030815;28;20497;-76
2023/10/05 09:55:05;;;;;;;9.60;3.90;;;;;;;-148.88;100.00;-17125.47;5032263;28;20029;-76
2023/10/05 09:57:41;;;;;;;12.25;4.53;;;;;;;-148.88;100.00;-17125.47;5030756;28;20075;-77
2023/10/05 10:00:47;;;;;;;9.48;3.75;;;;;;;-148.88;100.00;-17125.47;5032204;28;20100;-77
2023/10/05 10:03:17;;;;;;;10.48;4.00;;;;;;;-148.88;100.00;-17125.47;5030629;28;20026;-76
2023/10/05 10:06:07;;;;;;;9.02;3.40;;;;;;;-148.88;100.00;-17125.47;5031841;28;20027;-76
2023/10/05 10:08:42;;;;;;;12.20;4.10;;;;;;;-148.88;100.00;-17125.47;5032047;28;20029;-77
2023/10/05 10:11:24;;;;;;;11.98;3.42;;;;;;;-148.88;100.00;-17125.47;5032174;28;20556;-77
2023/10/05 10:14:06;;;;;;;13.85;4.03;;;;;;;-148.88;100.00;-17125.47;5032331;28;20091;-77
2023/10/05 10:16:33;;;;;;;11.60;3.80;;;;;;;-148.88;100.00;-17125.47;5030653;28;20106;-77
2023/10/05 10:19:06;;;;;;;9.02;3.75;;;;;;;-148.88;100.00;-17125.47;5032493;28;20025;-77
2023/10/05 10:21:49;;;;;;;11.98;3.63;;;;;;;-148.88;100.00;-17125.47;5030581;28;20036;-77
2023/10/05 10:24:18;;;;;;;11.35;4.07;;;;;;;-148.88;100.00;-17125.47;5032151;28;20079;-77
2023/10/05 10:27:15;;;;;;;11.95;4.07;;;;;;;-148.88;100.00;-17125.47;5031814;28;20029;-77
2023/10/05 10:29:53;;;;;;;9.38;3.70;;;;;;;-148.88;100.00;-17125.47;5029394;28;20029;-77
2023/10/05 10:32:22;;;;;;;13.10;4.15;;;;;;;-148.88;100.00;-17125.47;5035720;28;20025;-76
2023/10/05 10:34:55;;;;;;;10.65;3.35;;;;;;;-148.88;100.00;-17125.47;5034136;28;20021;-77
2023/10/05 10:37:44;;;;;;;12.18;3.47;;;;;;;-148.88;100.00;-17125.47;5035708;28;20022;-77
2023/10/05 10:40:53;;;;;;;11.55;3.50;;;;;;;-148.88;100.00;-17125.47;5035191;28;20111;-77
2023/10/05 10:45:36;;;;;;;10.02;3.47;;;;;;;-148.88;100.00;-17125.47;5035609;28;20083;-77
2023/10/05 10:48:08;;;;;;;10.98;3.58;;;;;;;-148.88;100.00;-17125.47;5035387;28;20105;-77
2023/10/05 10:50:37;;;;;;;10.50;3.58;;;;;;;-148.88;100.00;-17125.47;5035006;28;20029;-77
2023/10/05 10:53:16;;;;;;;8.80;3.65;;;;;;;-148.88;100.00;-17125.47;5035100;28;20029;-77
2023/10/05 10:55:48;;;;;;;12.02;3.80;;;;;;;-148.88;100.00;-17125.47;5035170;28;20489;-77
2023/10/05 10:58:16;;;;;;;10.23;3.63;;;;;;;-148.88;100.00;-17125.47;5035290;28;20025;-77
2023/10/05 11:01:13;;;;;;;9.50;3.20;;;;;;;-148.88;100.00;-17125.47;5034952;28;20053;-77
2023/10/05 11:03:39;;;;;;;9.73;3.70;;;;;;;-148.88;100.00;-17125.47;5035572;28;20053;-77
2023/10/05 11:06:09;;;;;;;9.85;3.38;;;;;;;-148.88;100.00;-17125.47;5034970;28;20065;-76
2023/10/05 11:08:40;;;;;;;11.30;3.65;;;;;;;-148.88;100.00;-17125.47;5033546;28;20029;-76
2023/10/05 11:11:09;;;;;;;10.27;3.85;;;;;;;-148.88;100.00;-17125.47;5035252;28;20035;-77
2023/10/05 11:13:49;;;;;;;8.23;3.33;;;;;;;-148.88;100.00;-17125.47;5034598;28;20462;-77
2023/10/05 11:16:15;;;;;;;8.15;3.30;;;;;;;-148.88;100.00;-17125.47;5034951;28;20512;-76
2023/10/05 11:19:03;;;;;;;6.57;3.67;;;;;;;-148.88;100.00;-17125.47;5034828;28;20176;-77
2023/10/05 11:21:43;;;;;;;9.32;3.60;;;;;;;-148.88;100.00;-17125.47;5034705;28;20492;-76
2023/10/05 11:24:09;;;;;;;11.18;3.45;;;;;;;-148.88;100.00;-17125.47;5033201;28;20176;-77
2023/10/05 11:29:28;;;;;;;11.68;3.38;;;;;;;-148.88;100.00;-17125.47;5034845;28;20025;-77
2023/10/05 11:32:01;;;;;;;9.10;3.38;;;;;;;-148.88;100.00;-17125.47;5034330;28;20026;-77
2023/10/05 11:34:38;;;;;;;8.82;3.50;;;;;;;-148.88;100.00;-17125.47;5032876;28;20026;-77
2023/10/05 11:37:11;;;;;;;11.60;3.50;;;;;;;-148.88;100.00;-17125.47;5034536;28;20342;-77